createdAt,value
2023-02-19T00:01:48.131Z,95166.84
2023-02-19T00:04:17.264Z,95139.84
2023-02-19T00:06:45.919Z,95136.41
2023-02-19T00:09:15.191Z,95140.16
2023-02-19T00:11:43.183Z,95140.16
2023-02-19T00:14:16.017Z,95130.22
2023-02-19T00:16:42.749Z,95124.59
2023-02-19T00:19:14.637Z,95130.53
2023-02-19T00:21:41.647Z,95123.38
2023-02-19T00:24:11.766Z,95117.34
2023-02-19T00:26:42.253Z,95108.50
2023-02-19T00:29:14.120Z,95125.63
2023-02-19T00:31:41.353Z,95127.00
2023-02-19T00:34:10.099Z,95107.75
2023-02-19T00:36:39.249Z,95121.34
2023-02-19T00:39:07.534Z,95120.41
2023-02-19T00:41:34.670Z,95128.88
2023-02-19T00:44:05.756Z,95126.38
2023-02-19T00:46:39.662Z,95119.19
2023-02-19T00:49:08.760Z,95105.44
2023-02-19T00:51:37.961Z,95103.94
2023-02-19T00:54:06.248Z,95115.13
2023-02-19T00:56:33.403Z,95116.13
2023-02-19T00:59:00.220Z,95118.59
2023-02-19T01:01:27.113Z,95114.19
2023-02-19T01:03:53.932Z,95096.25
2023-02-19T01:06:21.499Z,95111.84
2023-02-19T01:08:49.032Z,95116.69
2023-02-19T01:11:16.913Z,95110.03
2023-02-19T01:13:43.997Z,95102.38
2023-02-19T01:16:18.590Z,95113.97
2023-02-19T01:18:46.604Z,95111.94
2023-02-19T01:21:16.659Z,95110.91
2023-02-19T01:23:44.328Z,95099.22
2023-02-19T01:26:19.133Z,95089.88
2023-02-19T01:28:46.124Z,95099.91
2023-02-19T01:31:17.003Z,95087.16
2023-02-19T01:33:49.492Z,95095.41
2023-02-19T01:36:16.564Z,95085.19
2023-02-19T01:38:43.886Z,95082.84
2023-02-19T01:41:17.407Z,95085.47
2023-02-19T01:44:29.322Z,95073.94
2023-02-19T01:46:59.012Z,95064.59
2023-02-19T01:49:33.876Z,95065.22
2023-02-19T01:52:31.921Z,95049.53
2023-02-19T01:55:01.827Z,95064.53
2023-02-19T01:57:34.369Z,95056.25
2023-02-19T02:00:09.507Z,95037.81
2023-02-19T02:02:37.119Z,95021.41
2023-02-19T02:05:04.433Z,95023.03
2023-02-19T02:07:49.533Z,95033.78
2023-02-19T02:10:22.297Z,95045.59
2023-02-19T02:12:53.901Z,95062.66
2023-02-19T02:15:22.443Z,95021.56
2023-02-19T02:18:12.933Z,95046.34
2023-02-19T02:20:58.332Z,95065.59
2023-02-19T02:23:58.560Z,95057.44
2023-02-19T02:26:34.342Z,95062.25
2023-02-19T02:29:32.529Z,95061.53
2023-02-19T02:32:11.674Z,95040.56
2023-02-19T02:35:08.922Z,95048.25
2023-02-19T02:37:39.352Z,95049.72
2023-02-19T02:40:08.926Z,95053.44
2023-02-19T02:42:39.156Z,95032.16
2023-02-19T02:45:36.521Z,95038.31
2023-02-19T02:48:20.727Z,95034.44
2023-02-19T02:51:06.934Z,95019.44
2023-02-19T02:54:05.995Z,95034.44
2023-02-19T02:56:34.684Z,95029.69
2023-02-19T02:59:04.492Z,95036.75
2023-02-19T03:02:00.279Z,95047.78
2023-02-19T03:05:26.952Z,95048.06
2023-02-19T03:08:12.168Z,95042.13
2023-02-19T03:10:50.563Z,95036.88
2023-02-19T03:14:05.582Z,95037.56
2023-02-19T03:16:55.308Z,95027.06
2023-02-19T03:19:25.400Z,95024.38
2023-02-19T03:22:18.018Z,95043.69
2023-02-19T03:25:12.923Z,95020.19
2023-02-19T03:27:42.999Z,95031.19
2023-02-19T03:30:21.203Z,95017.78
2023-02-19T03:33:17.624Z,95011.06
2023-02-19T03:35:57.002Z,94999.22
2023-02-19T03:38:32.271Z,94981.63
2023-02-19T03:41:11.675Z,94980.56
2023-02-19T03:43:52.693Z,94975.09
2023-02-19T03:46:30.330Z,94990.25
2023-02-19T03:49:06.229Z,95011.69
2023-02-19T03:52:02.593Z,94999.44
2023-02-19T03:54:44.973Z,94998.63
2023-02-19T03:57:21.563Z,95026.81
2023-02-19T04:00:11.012Z,95005.16
2023-02-19T04:03:11.722Z,95023.47
2023-02-19T04:05:46.968Z,95027.13
2023-02-19T04:08:19.902Z,95024.69
2023-02-19T04:10:47.596Z,95032.69
2023-02-19T04:13:25.173Z,95033.50
2023-02-19T04:15:57.199Z,95028.78
2023-02-19T04:18:31.824Z,95020.59
2023-02-19T04:21:00.718Z,95043.78
2023-02-19T04:23:31.026Z,95045.94
2023-02-19T04:26:00.414Z,95042.56
2023-02-19T04:28:29.247Z,95033.50
2023-02-19T04:30:56.105Z,95025.56
2023-02-19T04:33:22.891Z,95036.72
2023-02-19T04:35:49.620Z,95042.44
2023-02-19T04:38:16.401Z,95034.16
2023-02-19T04:40:43.201Z,95028.31
2023-02-19T04:43:09.966Z,95002.28
2023-02-19T04:45:39.747Z,95011.97
2023-02-19T04:48:06.555Z,95014.66
2023-02-19T04:50:33.355Z,95037.84
2023-02-19T04:53:00.150Z,95008.06
2023-02-19T04:55:26.876Z,95022.41
2023-02-19T04:57:53.593Z,95024.81
2023-02-19T05:00:20.550Z,95017.75
2023-02-19T05:02:47.751Z,95029.28
2023-02-19T05:05:14.520Z,95034.69
2023-02-19T05:07:41.269Z,95052.63
2023-02-19T05:10:08.230Z,95016.94
2023-02-19T05:12:35.000Z,95044.34
2023-02-19T05:15:01.737Z,95036.13
2023-02-19T05:17:28.618Z,95043.59
2023-02-19T05:19:55.363Z,95040.91
2023-02-19T05:22:22.153Z,95042.94
2023-02-19T05:24:48.914Z,95052.53
2023-02-19T05:27:15.640Z,95061.22
2023-02-19T05:29:42.388Z,95062.59
2023-02-19T05:32:09.329Z,95065.13
2023-02-19T05:34:36.152Z,95047.44
2023-02-19T05:37:04.771Z,95049.91
2023-02-19T05:39:31.576Z,95062.38
2023-02-19T05:41:58.333Z,95036.88
2023-02-19T05:44:25.934Z,95083.72
2023-02-19T05:46:52.687Z,95072.34
2023-02-19T05:49:19.433Z,95078.41
2023-02-19T05:51:46.174Z,95092.06
2023-02-19T05:54:12.933Z,95066.00
2023-02-19T05:56:42.708Z,95093.19
2023-02-19T05:59:20.937Z,95103.75
2023-02-19T06:01:50.388Z,95097.91
2023-02-19T06:04:19.291Z,95099.69
2023-02-19T06:06:47.730Z,95107.03
2023-02-19T06:09:14.481Z,95096.53
2023-02-19T06:11:41.432Z,95080.72
2023-02-19T06:14:08.332Z,95095.66
2023-02-19T06:16:35.221Z,95102.84
2023-02-19T06:19:05.444Z,95101.84
2023-02-19T06:21:32.388Z,95105.50
2023-02-19T06:23:59.260Z,95119.69
2023-02-19T06:26:26.394Z,95098.75
2023-02-19T06:28:53.737Z,95115.97
2023-02-19T06:31:22.573Z,95118.31
2023-02-19T06:33:50.903Z,95123.16
2023-02-19T06:36:20.609Z,95106.91
2023-02-19T06:38:47.476Z,95119.78
2023-02-19T06:41:14.857Z,95127.75
2023-02-19T06:43:42.504Z,95134.66
2023-02-19T06:46:14.132Z,95126.00
2023-02-19T06:48:43.299Z,95137.63
2023-02-19T06:51:18.779Z,95149.56
2023-02-19T06:53:46.509Z,95154.50
2023-02-19T06:56:32.540Z,95165.06
2023-02-19T06:59:03.107Z,95174.72
2023-02-19T07:01:32.010Z,95180.81
2023-02-19T07:03:59.290Z,95175.84
2023-02-19T07:06:27.600Z,95185.59
2023-02-19T07:08:56.338Z,95193.06
2023-02-19T07:11:23.951Z,95184.41
2023-02-19T07:13:56.547Z,95207.47
2023-02-19T07:16:24.062Z,95206.53
2023-02-19T07:18:50.948Z,95210.66
2023-02-19T07:21:18.955Z,95223.75
2023-02-19T07:23:46.277Z,95234.69
2023-02-19T07:26:18.222Z,95227.78
2023-02-19T07:28:45.967Z,95235.81
2023-02-19T07:31:14.497Z,95249.88
2023-02-19T07:33:46.635Z,95251.78
2023-02-19T07:36:15.354Z,95259.09
2023-02-19T07:38:42.127Z,95242.41
2023-02-19T07:41:09.452Z,95266.41
2023-02-19T07:43:38.512Z,95266.84
2023-02-19T07:46:11.458Z,95271.13
2023-02-19T07:48:39.066Z,95271.66
2023-02-19T07:51:10.659Z,95271.38
2023-02-19T07:53:37.646Z,95277.47
2023-02-19T07:56:07.330Z,95266.97
2023-02-19T07:58:35.037Z,95275.13
2023-02-19T08:01:16.513Z,95282.84
2023-02-19T08:03:45.211Z,95288.34
2023-02-19T08:06:12.812Z,95280.22
2023-02-19T08:08:40.320Z,95279.25
2023-02-19T08:11:25.976Z,95289.88
2023-02-19T08:13:53.739Z,95302.44
2023-02-19T08:16:36.943Z,95307.25
2023-02-19T08:19:08.775Z,95298.41
2023-02-19T08:21:35.537Z,95271.81
2023-02-19T08:24:02.304Z,95285.03
2023-02-19T08:26:29.123Z,95294.84
2023-02-19T08:28:55.846Z,95315.56
2023-02-19T08:31:22.677Z,95296.47
2023-02-19T08:33:49.468Z,95316.94
2023-02-19T08:36:16.235Z,95320.34
2023-02-19T08:38:43.035Z,95315.53
2023-02-19T08:41:13.892Z,95310.00
2023-02-19T08:43:42.075Z,95303.13
2023-02-19T08:46:10.578Z,95306.41
2023-02-19T08:48:38.682Z,95323.72
2023-02-19T08:51:10.238Z,95325.31
2023-02-19T08:53:39.102Z,95331.84
2023-02-19T08:56:15.622Z,95335.16
2023-02-19T08:58:42.820Z,95337.22
2023-02-19T09:01:13.767Z,95341.91
2023-02-19T09:03:41.034Z,95333.50
2023-02-19T09:06:08.546Z,95334.03
2023-02-19T09:08:35.418Z,95336.53
2023-02-19T09:11:04.750Z,95323.53
2023-02-19T09:13:31.871Z,95341.06
2023-02-19T09:15:58.678Z,95321.03
2023-02-19T09:18:26.561Z,95348.09
2023-02-19T09:20:53.385Z,95338.66
2023-02-19T09:23:20.185Z,95338.19
2023-02-19T09:25:47.176Z,95335.56
2023-02-19T09:28:14.031Z,95337.84
2023-02-19T09:30:40.818Z,95349.00
2023-02-19T09:33:08.064Z,95353.56
2023-02-19T09:35:34.792Z,95348.22
2023-02-19T09:38:02.227Z,95355.69
2023-02-19T09:40:30.562Z,95354.88
2023-02-19T09:42:57.800Z,95366.97
2023-02-19T09:45:26.423Z,95382.34
2023-02-19T09:47:56.801Z,95363.94
2023-02-19T09:50:33.724Z,95383.31
2023-02-19T09:53:05.684Z,95393.03
2023-02-19T09:55:51.562Z,95375.34
2023-02-19T09:58:30.127Z,95381.81
2023-02-19T10:01:00.948Z,95375.72
2023-02-19T10:03:39.210Z,95365.91
2023-02-19T10:06:29.965Z,95371.84
2023-02-19T10:09:14.520Z,95384.59
2023-02-19T10:11:42.252Z,95379.03
2023-02-19T10:14:17.771Z,95375.03
2023-02-19T10:16:48.187Z,95365.41
2023-02-19T10:19:16.321Z,95370.63
2023-02-19T10:21:43.858Z,95366.78
2023-02-19T10:24:26.358Z,95373.38
2023-02-19T10:26:53.220Z,95371.44
2023-02-19T10:29:22.044Z,95371.00
2023-02-19T10:31:49.063Z,95367.88
2023-02-19T10:34:23.337Z,95382.09
2023-02-19T10:36:52.418Z,95375.03
2023-02-19T10:39:21.927Z,95393.00
2023-02-19T10:41:50.933Z,95367.94
2023-02-19T10:44:35.637Z,95390.22
2023-02-19T10:47:02.491Z,95400.41
2023-02-19T10:49:35.690Z,95393.50
2023-02-19T10:52:21.742Z,95399.38
2023-02-19T10:54:56.407Z,95405.09
2023-02-19T10:57:33.107Z,95397.66
2023-02-19T11:00:22.776Z,95415.84
2023-02-19T11:02:49.723Z,95408.50
2023-02-19T11:05:20.982Z,95411.88
2023-02-19T11:07:56.042Z,95398.34
2023-02-19T11:10:42.407Z,95399.00
2023-02-19T11:13:18.565Z,95394.84
2023-02-19T11:15:53.621Z,95398.72
2023-02-19T11:18:28.208Z,95397.44
2023-02-19T11:20:59.324Z,95394.34
2023-02-19T11:23:36.561Z,95374.47
2023-02-19T11:26:17.126Z,95380.34
2023-02-19T11:28:44.811Z,95367.31
2023-02-19T11:31:36.247Z,95376.94
2023-02-19T11:34:21.423Z,95380.81
2023-02-19T11:37:14.906Z,95369.38
2023-02-19T11:39:45.741Z,95375.16
2023-02-19T11:42:18.538Z,95375.38
2023-02-19T11:44:55.274Z,95375.16
2023-02-19T11:48:08.332Z,95360.34
2023-02-19T11:50:59.877Z,95371.69
2023-02-19T11:53:28.088Z,95365.44
2023-02-19T11:56:25.017Z,95366.19
2023-02-19T11:59:05.455Z,95357.75
2023-02-19T12:01:56.629Z,95367.00
2023-02-19T12:04:39.613Z,95368.34
2023-02-19T12:07:43.545Z,95365.34
2023-02-19T12:10:58.337Z,95360.25
2023-02-19T12:13:49.139Z,95369.13
2023-02-19T12:16:55.923Z,95379.91
2023-02-19T12:19:39.399Z,95368.72
2023-02-19T12:22:31.279Z,95377.81
2023-02-19T12:25:25.788Z,95385.56
2023-02-19T12:28:23.478Z,95369.41
2023-02-19T12:31:34.806Z,95375.47
2023-02-19T12:34:36.362Z,95378.09
2023-02-19T12:37:24.680Z,95370.31
2023-02-19T12:40:19.412Z,95373.78
2023-02-19T12:43:14.099Z,95381.00
2023-02-19T12:45:52.688Z,95379.56
2023-02-19T12:48:44.776Z,95379.03
2023-02-19T12:51:34.093Z,95375.63
2023-02-19T12:54:04.400Z,95383.59
2023-02-19T12:56:39.633Z,95367.44
2023-02-19T12:59:23.779Z,95356.91
2023-02-19T13:01:56.532Z,95377.91
2023-02-19T13:04:35.126Z,95360.31
2023-02-19T13:07:52.123Z,95359.44
2023-02-19T13:10:35.744Z,95367.06
2023-02-19T13:13:12.865Z,95373.66
2023-02-19T13:15:44.352Z,95361.50
2023-02-19T13:18:20.844Z,95381.03
2023-02-19T13:20:49.240Z,95379.81
2023-02-19T13:23:57.651Z,95382.25
2023-02-19T13:27:13.253Z,95370.22
2023-02-19T13:30:24.957Z,95364.78
2023-02-19T13:33:55.573Z,95363.91
2023-02-19T13:36:29.967Z,95354.28
2023-02-19T13:38:57.802Z,95347.06
2023-02-19T13:41:37.588Z,95347.16
2023-02-19T13:44:08.494Z,95358.50
2023-02-19T13:46:44.521Z,95352.59
2023-02-19T13:49:24.140Z,95366.09
2023-02-19T13:51:53.553Z,95364.81
2023-02-19T13:54:40.065Z,95369.72
2023-02-19T13:57:20.237Z,95372.94
2023-02-19T13:59:48.395Z,95363.91
2023-02-19T14:02:21.288Z,95393.84
2023-02-19T14:04:57.075Z,95407.38
2023-02-19T14:07:54.010Z,95391.59
2023-02-19T14:10:51.720Z,95407.84
2023-02-19T14:13:52.510Z,95410.50
2023-02-19T14:16:28.391Z,95400.03
2023-02-19T14:18:56.398Z,95399.50
2023-02-19T14:21:38.672Z,95382.00
2023-02-19T14:24:10.843Z,95397.06
2023-02-19T14:26:38.494Z,95403.88
2023-02-19T14:29:08.731Z,95403.88
2023-02-19T14:31:39.324Z,95391.16
2023-02-19T14:34:14.979Z,95397.22
2023-02-19T14:36:51.884Z,95377.19
2023-02-19T14:39:35.238Z,95385.56
2023-02-19T14:42:34.193Z,95389.75
2023-02-19T14:45:03.895Z,95395.81
2023-02-19T14:47:35.103Z,95405.34
2023-02-19T14:50:13.629Z,95408.47
2023-02-19T14:52:54.312Z,95404.63
2023-02-19T14:55:32.914Z,95415.66
2023-02-19T14:58:05.251Z,95410.53
2023-02-19T15:00:43.126Z,95414.28
2023-02-19T15:03:37.406Z,95406.16
2023-02-19T15:06:07.200Z,95410.41
2023-02-19T15:08:38.875Z,95412.47
2023-02-19T15:11:14.639Z,95408.47
2023-02-19T15:13:45.744Z,95399.78
2023-02-19T15:16:22.651Z,95395.91
2023-02-19T15:18:51.978Z,95394.41
2023-02-19T15:21:28.661Z,95389.44
2023-02-19T15:24:01.745Z,95388.34
2023-02-19T15:26:36.397Z,95396.28
2023-02-19T15:29:10.743Z,95405.06
2023-02-19T15:31:56.058Z,95409.38
2023-02-19T15:34:27.046Z,95416.25
2023-02-19T15:37:07.015Z,95404.94
2023-02-19T15:39:35.338Z,95414.44
2023-02-19T15:42:05.357Z,95400.22
2023-02-19T15:44:42.013Z,95404.53
2023-02-19T15:47:39.078Z,95408.00
2023-02-19T15:50:26.116Z,95407.44
2023-02-19T15:53:03.656Z,95434.22
2023-02-19T15:55:46.245Z,95440.88
2023-02-19T15:58:40.398Z,95436.19
2023-02-19T16:01:25.712Z,95449.00
2023-02-19T16:03:56.349Z,95449.69
2023-02-19T16:06:26.270Z,95450.81
2023-02-19T16:08:52.998Z,95450.94
2023-02-19T16:11:22.763Z,95451.06
2023-02-19T16:13:52.012Z,95459.81
2023-02-19T16:16:24.172Z,95450.81
2023-02-19T16:18:52.423Z,95449.00
2023-02-19T16:21:23.919Z,95446.81
2023-02-19T16:24:01.880Z,95454.56
2023-02-19T16:26:28.740Z,95459.13
2023-02-19T16:28:56.605Z,95449.44
2023-02-19T16:31:24.076Z,95465.75
2023-02-19T16:33:51.470Z,95468.63
2023-02-19T16:36:34.890Z,95482.44
2023-02-19T16:39:07.490Z,95471.94
2023-02-19T16:41:40.150Z,95482.44
2023-02-19T16:44:21.763Z,95483.81
2023-02-19T16:46:54.294Z,95484.09
2023-02-19T16:49:24.067Z,95462.16
2023-02-19T16:51:51.475Z,95493.75
2023-02-19T16:54:18.203Z,95490.56
2023-02-19T16:56:44.951Z,95491.13
2023-02-19T16:59:11.684Z,95477.31
2023-02-19T17:01:38.770Z,95497.31
2023-02-19T17:04:08.681Z,95500.91
2023-02-19T17:06:37.947Z,95480.19
2023-02-19T17:09:06.882Z,95476.06
2023-02-19T17:11:33.650Z,95473.41
2023-02-19T17:14:00.911Z,95491.34
2023-02-19T17:16:32.138Z,95479.97
2023-02-19T17:18:58.997Z,95474.97
2023-02-19T17:21:32.049Z,95483.28
2023-02-19T17:23:58.787Z,95476.69
2023-02-19T17:26:31.682Z,95469.78
2023-02-19T17:28:59.801Z,95471.44
2023-02-19T17:31:27.534Z,95479.16
2023-02-19T17:33:54.930Z,95454.84
2023-02-19T17:36:30.926Z,95489.22
2023-02-19T17:39:02.776Z,95497.78
2023-02-19T17:41:29.879Z,95486.03
2023-02-19T17:43:56.646Z,95477.44
2023-02-19T17:46:26.708Z,95497.59
2023-02-19T17:48:54.885Z,95515.03
2023-02-19T17:51:22.239Z,95524.69
2023-02-19T17:53:49.458Z,95521.09
2023-02-19T17:56:23.904Z,95526.75
2023-02-19T17:58:50.650Z,95528.91
2023-02-19T18:01:17.929Z,95531.50
2023-02-19T18:03:44.795Z,95527.22
2023-02-19T18:06:11.864Z,95523.47
2023-02-19T18:08:38.690Z,95537.53
2023-02-19T18:11:07.096Z,95533.69
2023-02-19T18:13:33.847Z,95539.50
2023-02-19T18:16:00.614Z,95540.06
2023-02-19T18:18:27.358Z,95534.22
2023-02-19T18:20:54.103Z,95552.91
2023-02-19T18:23:20.836Z,95549.94
2023-02-19T18:25:47.717Z,95553.25
2023-02-19T18:28:15.158Z,95546.34
2023-02-19T18:30:42.061Z,95535.47
2023-02-19T18:33:11.023Z,95549.19
2023-02-19T18:35:38.574Z,95555.72
2023-02-19T18:38:06.125Z,95573.25
2023-02-19T18:40:32.854Z,95576.31
2023-02-19T18:42:59.864Z,95564.00
2023-02-19T18:45:27.656Z,95596.59
2023-02-19T18:47:54.534Z,95570.56
2023-02-19T18:50:21.482Z,95595.72
2023-02-19T18:52:48.304Z,95586.63
2023-02-19T18:55:15.157Z,95587.44
2023-02-19T18:57:41.977Z,95571.22
2023-02-19T19:00:09.622Z,95559.16
2023-02-19T19:02:48.711Z,95575.75
2023-02-19T19:05:23.739Z,95569.38
2023-02-19T19:07:56.545Z,95577.94
2023-02-19T19:10:24.019Z,95547.91
2023-02-19T19:12:51.408Z,95575.22
2023-02-19T19:15:19.029Z,95569.63
2023-02-19T19:17:47.749Z,95579.34
2023-02-19T19:20:17.987Z,95573.41
2023-02-19T19:22:44.758Z,95576.53
2023-02-19T19:25:11.822Z,95562.28
2023-02-19T19:27:38.596Z,95559.94
2023-02-19T19:30:06.337Z,95548.88
2023-02-19T19:32:33.099Z,95554.94
2023-02-19T19:35:00.049Z,95571.25
2023-02-19T19:37:28.907Z,95556.69
2023-02-19T19:39:56.554Z,95566.50
2023-02-19T19:42:23.703Z,95569.00
2023-02-19T19:44:50.658Z,95567.56
2023-02-19T19:47:17.486Z,95579.59
2023-02-19T19:49:47.402Z,95599.34
2023-02-19T19:52:14.752Z,95597.66
2023-02-19T19:54:43.265Z,95584.97
2023-02-19T19:57:10.800Z,95600.69
2023-02-19T19:59:39.474Z,95599.84
2023-02-19T20:02:07.972Z,95599.50
2023-02-19T20:04:34.875Z,95598.09
2023-02-19T20:07:02.333Z,95612.09
2023-02-19T20:09:29.426Z,95596.44
2023-02-19T20:11:56.654Z,95607.50
2023-02-19T20:14:25.102Z,95608.06
2023-02-19T20:16:52.959Z,95619.25
2023-02-19T20:19:20.980Z,95613.28
2023-02-19T20:21:53.240Z,95616.31
2023-02-19T20:24:28.681Z,95609.53
2023-02-19T20:27:02.082Z,95621.41
2023-02-19T20:29:31.514Z,95618.09
2023-02-19T20:32:00.293Z,95597.69
2023-02-19T20:34:27.437Z,95612.66
2023-02-19T20:36:54.704Z,95623.72
2023-02-19T20:39:22.192Z,95588.22
2023-02-19T20:41:51.951Z,95624.78
2023-02-19T20:44:19.363Z,95609.97
2023-02-19T20:46:49.661Z,95617.03
2023-02-19T20:49:19.492Z,95614.56
2023-02-19T20:52:01.898Z,95627.06
2023-02-19T20:54:31.694Z,95634.69
2023-02-19T20:57:02.969Z,95632.28
2023-02-19T20:59:35.171Z,95617.31
2023-02-19T21:02:04.090Z,95623.25
2023-02-19T21:04:31.419Z,95618.72
2023-02-19T21:06:58.529Z,95602.16
2023-02-19T21:09:25.407Z,95616.44
2023-02-19T21:11:53.523Z,95628.69
2023-02-19T21:14:20.540Z,95602.09
2023-02-19T21:16:47.493Z,95599.00
2023-02-19T21:19:14.344Z,95613.72
2023-02-19T21:21:41.108Z,95625.59
2023-02-19T21:24:09.828Z,95635.81
2023-02-19T21:26:39.701Z,95625.00
2023-02-19T21:29:08.388Z,95614.91
2023-02-19T21:31:41.644Z,95630.00
2023-02-19T21:34:12.223Z,95629.41
2023-02-19T21:36:39.490Z,95626.34
2023-02-19T21:39:08.600Z,95635.84
2023-02-19T21:41:35.630Z,95636.66
2023-02-19T21:44:04.192Z,95630.88
2023-02-19T21:46:33.003Z,95632.41
2023-02-19T21:49:00.898Z,95633.22
2023-02-19T21:51:41.251Z,95637.63
2023-02-19T21:54:12.653Z,95639.53
2023-02-19T21:56:39.385Z,95641.34
2023-02-19T21:59:06.116Z,95629.22
2023-02-19T22:01:40.010Z,95628.75
2023-02-19T22:04:08.670Z,95636.34
2023-02-19T22:06:35.625Z,95631.59
2023-02-19T22:09:02.924Z,95648.84
2023-02-19T22:11:29.700Z,95652.19
2023-02-19T22:13:56.440Z,95643.97
2023-02-19T22:16:23.919Z,95640.41
2023-02-19T22:18:54.636Z,95630.78
2023-02-19T22:21:23.474Z,95635.63
2023-02-19T22:23:52.822Z,95634.22
2023-02-19T22:26:30.619Z,95633.88
2023-02-19T22:28:59.596Z,95633.16
2023-02-19T22:31:27.863Z,95622.59
2023-02-19T22:33:56.485Z,95629.47
2023-02-19T22:36:27.855Z,95632.34
2023-02-19T22:38:54.911Z,95638.75
2023-02-19T22:41:22.894Z,95635.88
2023-02-19T22:43:50.156Z,95625.69
2023-02-19T22:46:20.382Z,95635.88
2023-02-19T22:48:47.724Z,95634.00
2023-02-19T22:51:18.018Z,95639.47
2023-02-19T22:53:53.719Z,95646.59
2023-02-19T22:56:23.790Z,95657.28
2023-02-19T22:58:51.280Z,95656.81
2023-02-19T23:01:19.067Z,95665.25
2023-02-19T23:03:56.707Z,95672.16
2023-02-19T23:06:29.675Z,95669.66
2023-02-19T23:08:58.436Z,95673.34
2023-02-19T23:11:31.776Z,95672.75
2023-02-19T23:13:58.824Z,95665.72
2023-02-19T23:16:25.837Z,95654.66
2023-02-19T23:18:52.808Z,95654.66
2023-02-19T23:21:20.960Z,95655.25
2023-02-19T23:23:47.895Z,95666.69
2023-02-19T23:26:16.363Z,95670.34
2023-02-19T23:28:44.480Z,95671.44
2023-02-19T23:31:12.685Z,95668.69
2023-02-19T23:33:39.868Z,95656.81
2023-02-19T23:36:07.428Z,95662.66
2023-02-19T23:38:34.308Z,95664.66
2023-02-19T23:41:01.287Z,95661.56
2023-02-19T23:43:28.237Z,95665.84
2023-02-19T23:45:55.154Z,95671.44
2023-02-19T23:48:21.933Z,95663.09
2023-02-19T23:50:48.663Z,95672.25
2023-02-19T23:53:15.403Z,95674.03
2023-02-19T23:55:42.190Z,95669.78
2023-02-19T23:58:08.961Z,95652.41
